sensor_id;sensor_type;location;lat;lon;timestamp;temperature;humidity
68235;DHT22;55052;52.056;5.296;2023-05-10T00:01:46;14.90;95.60
68235;DHT22;55052;52.056;5.296;2023-05-10T00:04:13;14.90;95.60
68235;DHT22;55052;52.056;5.296;2023-05-10T00:06:40;14.80;95.60
68235;DHT22;55052;52.056;5.296;2023-05-10T00:09:07;14.80;95.60
68235;DHT22;55052;52.056;5.296;2023-05-10T00:11:34;14.80;95.60
68235;DHT22;55052;52.056;5.296;2023-05-10T00:14:01;14.80;95.60
68235;DHT22;55052;52.056;5.296;2023-05-10T00:16:28;14.80;95.80
68235;DHT22;55052;52.056;5.296;2023-05-10T00:18:55;14.80;95.70
68235;DHT22;55052;52.056;5.296;2023-05-10T00:21:23;14.80;96.10
68235;DHT22;55052;52.056;5.296;2023-05-10T00:23:49;14.80;95.70
68235;DHT22;55052;52.056;5.296;2023-05-10T00:26:16;14.80;96.00
68235;DHT22;55052;52.056;5.296;2023-05-10T00:28:43;14.80;95.70
68235;DHT22;55052;52.056;5.296;2023-05-10T00:31:10;14.80;95.70
68235;DHT22;55052;52.056;5.296;2023-05-10T00:33:37;14.80;95.80
68235;DHT22;55052;52.056;5.296;2023-05-10T00:36:04;14.80;95.80
68235;DHT22;55052;52.056;5.296;2023-05-10T00:38:30;14.80;95.80
68235;DHT22;55052;52.056;5.296;2023-05-10T00:40:57;14.80;95.80
68235;DHT22;55052;52.056;5.296;2023-05-10T00:43:24;14.80;95.80
68235;DHT22;55052;52.056;5.296;2023-05-10T00:45:51;14.80;95.90
68235;DHT22;55052;52.056;5.296;2023-05-10T00:48:18;14.80;95.90
68235;DHT22;55052;52.056;5.296;2023-05-10T00:50:46;14.80;95.90
68235;DHT22;55052;52.056;5.296;2023-05-10T00:53:13;14.70;96.00
68235;DHT22;55052;52.056;5.296;2023-05-10T00:55:40;14.70;95.90
68235;DHT22;55052;52.056;5.296;2023-05-10T00:58:08;14.70;96.00
68235;DHT22;55052;52.056;5.296;2023-05-10T01:00:35;14.70;96.00
68235;DHT22;55052;52.056;5.296;2023-05-10T01:03:03;14.70;96.00
68235;DHT22;55052;52.056;5.296;2023-05-10T01:05:30;14.70;96.10
68235;DHT22;55052;52.056;5.296;2023-05-10T01:07:58;14.70;96.10
68235;DHT22;55052;52.056;5.296;2023-05-10T01:10:25;14.70;96.10
68235;DHT22;55052;52.056;5.296;2023-05-10T01:12:52;14.70;96.10
68235;DHT22;55052;52.056;5.296;2023-05-10T01:15:20;14.60;96.10
68235;DHT22;55052;52.056;5.296;2023-05-10T01:17:48;14.70;96.20
68235;DHT22;55052;52.056;5.296;2023-05-10T01:20:15;14.60;96.20
68235;DHT22;55052;52.056;5.296;2023-05-10T01:23:05;14.60;96.20
68235;DHT22;55052;52.056;5.296;2023-05-10T01:28:33;14.60;96.30
68235;DHT22;55052;52.056;5.296;2023-05-10T01:36:08;14.60;96.40
68235;DHT22;55052;52.056;5.296;2023-05-10T01:38:53;14.60;96.40
68235;DHT22;55052;52.056;5.296;2023-05-10T01:41:41;14.60;96.40
68235;DHT22;55052;52.056;5.296;2023-05-10T01:44:18;14.60;96.50
68235;DHT22;55052;52.056;5.296;2023-05-10T01:47:07;14.60;96.90
68235;DHT22;55052;52.056;5.296;2023-05-10T01:49:43;14.60;96.50
68235;DHT22;55052;52.056;5.296;2023-05-10T01:52:14;14.60;96.50
68235;DHT22;55052;52.056;5.296;2023-05-10T01:54:47;14.50;96.50
68235;DHT22;55052;52.056;5.296;2023-05-10T01:57:16;14.50;96.50
68235;DHT22;55052;52.056;5.296;2023-05-10T01:59:45;14.50;96.50
68235;DHT22;55052;52.056;5.296;2023-05-10T02:02:15;14.50;96.50
68235;DHT22;55052;52.056;5.296;2023-05-10T02:04:42;14.50;96.50
68235;DHT22;55052;52.056;5.296;2023-05-10T02:07:09;14.50;96.50
68235;DHT22;55052;52.056;5.296;2023-05-10T02:09:37;14.50;96.50
68235;DHT22;55052;52.056;5.296;2023-05-10T02:12:06;14.50;96.50
68235;DHT22;55052;52.056;5.296;2023-05-10T02:14:35;14.40;96.30
68235;DHT22;55052;52.056;5.296;2023-05-10T02:17:05;14.40;96.30
68235;DHT22;55052;52.056;5.296;2023-05-10T02:19:33;14.40;96.30
68235;DHT22;55052;52.056;5.296;2023-05-10T02:22:01;14.30;96.30
68235;DHT22;55052;52.056;5.296;2023-05-10T02:24:29;14.20;96.30
68235;DHT22;55052;52.056;5.296;2023-05-10T02:26:57;14.20;96.30
68235;DHT22;55052;52.056;5.296;2023-05-10T02:29:25;14.20;96.30
68235;DHT22;55052;52.056;5.296;2023-05-10T02:31:54;14.10;96.30
68235;DHT22;55052;52.056;5.296;2023-05-10T02:34:23;14.10;96.30
68235;DHT22;55052;52.056;5.296;2023-05-10T02:36:53;14.10;96.40
68235;DHT22;55052;52.056;5.296;2023-05-10T02:39:21;14.00;96.30
68235;DHT22;55052;52.056;5.296;2023-05-10T02:41:49;14.10;96.40
68235;DHT22;55052;52.056;5.296;2023-05-10T02:44:19;14.00;96.40
68235;DHT22;55052;52.056;5.296;2023-05-10T02:46:46;14.00;96.40
68235;DHT22;55052;52.056;5.296;2023-05-10T02:49:15;14.00;96.50
68235;DHT22;55052;52.056;5.296;2023-05-10T02:51:46;14.00;96.60
68235;DHT22;55052;52.056;5.296;2023-05-10T02:54:19;14.00;96.60
68235;DHT22;55052;52.056;5.296;2023-05-10T02:56:53;14.00;96.60
68235;DHT22;55052;52.056;5.296;2023-05-10T02:59:23;14.00;96.70
68235;DHT22;55052;52.056;5.296;2023-05-10T03:01:53;14.00;96.70
68235;DHT22;55052;52.056;5.296;2023-05-10T03:04:20;14.00;96.70
68235;DHT22;55052;52.056;5.296;2023-05-10T03:06:47;14.00;96.70
68235;DHT22;55052;52.056;5.296;2023-05-10T03:09:14;13.90;96.70
68235;DHT22;55052;52.056;5.296;2023-05-10T03:12:14;13.90;96.70
68235;DHT22;55052;52.056;5.296;2023-05-10T03:22:53;13.90;96.90
68235;DHT22;55052;52.056;5.296;2023-05-10T03:25:22;13.90;96.90
68235;DHT22;55052;52.056;5.296;2023-05-10T03:27:50;13.90;96.90
68235;DHT22;55052;52.056;5.296;2023-05-10T03:30:19;14.00;97.00
68235;DHT22;55052;52.056;5.296;2023-05-10T03:32:46;14.00;96.90
68235;DHT22;55052;52.056;5.296;2023-05-10T03:35:13;14.00;96.90
68235;DHT22;55052;52.056;5.296;2023-05-10T03:37:40;13.90;96.90
68235;DHT22;55052;52.056;5.296;2023-05-10T03:40:08;13.90;96.90
68235;DHT22;55052;52.056;5.296;2023-05-10T03:42:35;13.90;97.00
68235;DHT22;55052;52.056;5.296;2023-05-10T03:45:02;13.90;97.00
68235;DHT22;55052;52.056;5.296;2023-05-10T03:47:29;14.00;97.00
68235;DHT22;55052;52.056;5.296;2023-05-10T03:49:56;14.00;97.00
68235;DHT22;55052;52.056;5.296;2023-05-10T03:52:23;14.00;97.10
68235;DHT22;55052;52.056;5.296;2023-05-10T03:54:49;14.00;97.00
68235;DHT22;55052;52.056;5.296;2023-05-10T03:57:16;14.00;97.10
68235;DHT22;55052;52.056;5.296;2023-05-10T03:59:43;14.00;97.10
68235;DHT22;55052;52.056;5.296;2023-05-10T04:02:10;14.00;97.10
68235;DHT22;55052;52.056;5.296;2023-05-10T04:04:36;14.00;97.10
68235;DHT22;55052;52.056;5.296;2023-05-10T04:07:04;14.00;97.10
68235;DHT22;55052;52.056;5.296;2023-05-10T04:09:31;14.00;97.10
68235;DHT22;55052;52.056;5.296;2023-05-10T04:11:59;14.00;97.10
68235;DHT22;55052;52.056;5.296;2023-05-10T04:14:28;14.00;97.10
68235;DHT22;55052;52.056;5.296;2023-05-10T04:16:55;14.10;97.20
68235;DHT22;55052;52.056;5.296;2023-05-10T04:19:22;14.10;97.20
68235;DHT22;55052;52.056;5.296;2023-05-10T04:21:49;14.10;97.20
68235;DHT22;55052;52.056;5.296;2023-05-10T04:24:16;14.10;97.20
68235;DHT22;55052;52.056;5.296;2023-05-10T04:26:43;14.10;97.20
68235;DHT22;55052;52.056;5.296;2023-05-10T04:29:10;14.10;97.20
68235;DHT22;55052;52.056;5.296;2023-05-10T04:31:36;14.10;97.20
68235;DHT22;55052;52.056;5.296;2023-05-10T04:34:03;14.10;97.20
68235;DHT22;55052;52.056;5.296;2023-05-10T04:36:30;14.10;97.20
68235;DHT22;55052;52.056;5.296;2023-05-10T04:38:58;14.10;97.20
68235;DHT22;55052;52.056;5.296;2023-05-10T04:41:25;14.10;97.20
68235;DHT22;55052;52.056;5.296;2023-05-10T04:43:52;14.10;97.20
68235;DHT22;55052;52.056;5.296;2023-05-10T04:46:19;14.10;97.20
68235;DHT22;55052;52.056;5.296;2023-05-10T04:48:46;14.20;97.30
68235;DHT22;55052;52.056;5.296;2023-05-10T04:51:13;14.20;97.30
68235;DHT22;55052;52.056;5.296;2023-05-10T04:53:39;14.20;97.30
68235;DHT22;55052;52.056;5.296;2023-05-10T04:56:16;14.20;97.30
68235;DHT22;55052;52.056;5.296;2023-05-10T04:58:43;14.20;97.30
68235;DHT22;55052;52.056;5.296;2023-05-10T05:01:10;14.20;97.30
68235;DHT22;55052;52.056;5.296;2023-05-10T05:03:37;14.30;97.30
68235;DHT22;55052;52.056;5.296;2023-05-10T05:06:04;14.30;97.30
68235;DHT22;55052;52.056;5.296;2023-05-10T05:08:31;14.30;97.30
68235;DHT22;55052;52.056;5.296;2023-05-10T05:10:57;14.30;97.30
68235;DHT22;55052;52.056;5.296;2023-05-10T05:13:25;14.30;97.30
68235;DHT22;55052;52.056;5.296;2023-05-10T05:15:52;14.30;97.30
68235;DHT22;55052;52.056;5.296;2023-05-10T05:18:20;14.30;97.30
68235;DHT22;55052;52.056;5.296;2023-05-10T05:20:46;14.30;97.30
68235;DHT22;55052;52.056;5.296;2023-05-10T05:23:13;14.30;97.30
68235;DHT22;55052;52.056;5.296;2023-05-10T05:25:40;14.30;97.30
68235;DHT22;55052;52.056;5.296;2023-05-10T05:28:07;14.30;97.30
68235;DHT22;55052;52.056;5.296;2023-05-10T05:30:34;14.30;97.30
68235;DHT22;55052;52.056;5.296;2023-05-10T05:33:01;14.40;97.30
68235;DHT22;55052;52.056;5.296;2023-05-10T05:35:27;14.40;97.40
68235;DHT22;55052;52.056;5.296;2023-05-10T05:37:54;14.40;97.40
68235;DHT22;55052;52.056;5.296;2023-05-10T05:40:22;14.40;97.40
68235;DHT22;55052;52.056;5.296;2023-05-10T05:42:49;14.40;97.30
68235;DHT22;55052;52.056;5.296;2023-05-10T05:45:16;14.40;97.30
68235;DHT22;55052;52.056;5.296;2023-05-10T05:47:43;14.40;97.20
68235;DHT22;55052;52.056;5.296;2023-05-10T05:50:10;14.40;97.20
68235;DHT22;55052;52.056;5.296;2023-05-10T05:52:37;14.40;97.20
68235;DHT22;55052;52.056;5.296;2023-05-10T05:55:04;14.40;97.10
68235;DHT22;55052;52.056;5.296;2023-05-10T05:57:31;14.40;97.10
68235;DHT22;55052;52.056;5.296;2023-05-10T05:59:58;14.40;97.00
68235;DHT22;55052;52.056;5.296;2023-05-10T06:02:25;14.30;96.90
68235;DHT22;55052;52.056;5.296;2023-05-10T06:04:52;14.30;97.00
68235;DHT22;55052;52.056;5.296;2023-05-10T06:07:19;14.30;97.30
68235;DHT22;55052;52.056;5.296;2023-05-10T06:09:46;14.30;97.00
68235;DHT22;55052;52.056;5.296;2023-05-10T06:12:13;14.20;96.90
68235;DHT22;55052;52.056;5.296;2023-05-10T06:14:40;14.30;97.00
68235;DHT22;55052;52.056;5.296;2023-05-10T06:17:06;14.20;96.90
68235;DHT22;55052;52.056;5.296;2023-05-10T06:19:33;14.20;96.90
68235;DHT22;55052;52.056;5.296;2023-05-10T06:22:00;14.20;96.90
68235;DHT22;55052;52.056;5.296;2023-05-10T06:24:27;14.20;96.80
68235;DHT22;55052;52.056;5.296;2023-05-10T06:26:54;14.20;96.80
68235;DHT22;55052;52.056;5.296;2023-05-10T06:29:21;14.20;96.90
68235;DHT22;55052;52.056;5.296;2023-05-10T06:31:47;14.20;96.80
68235;DHT22;55052;52.056;5.296;2023-05-10T06:34:14;14.20;96.80
68235;DHT22;55052;52.056;5.296;2023-05-10T06:36:42;14.20;96.70
68235;DHT22;55052;52.056;5.296;2023-05-10T06:39:08;14.20;96.80
68235;DHT22;55052;52.056;5.296;2023-05-10T06:41:36;14.20;96.90
68235;DHT22;55052;52.056;5.296;2023-05-10T06:44:03;14.20;96.80
68235;DHT22;55052;52.056;5.296;2023-05-10T06:46:30;14.30;96.90
68235;DHT22;55052;52.056;5.296;2023-05-10T06:48:57;14.30;96.80
68235;DHT22;55052;52.056;5.296;2023-05-10T06:51:24;14.30;96.80
68235;DHT22;55052;52.056;5.296;2023-05-10T06:53:51;14.30;96.70
68235;DHT22;55052;52.056;5.296;2023-05-10T06:56:17;14.30;96.70
68235;DHT22;55052;52.056;5.296;2023-05-10T06:58:44;14.30;96.70
68235;DHT22;55052;52.056;5.296;2023-05-10T07:01:11;14.40;96.70
68235;DHT22;55052;52.056;5.296;2023-05-10T07:03:38;14.30;96.60
68235;DHT22;55052;52.056;5.296;2023-05-10T07:06:05;14.40;96.60
68235;DHT22;55052;52.056;5.296;2023-05-10T07:08:41;14.40;96.50
68235;DHT22;55052;52.056;5.296;2023-05-10T07:11:08;14.40;96.40
68235;DHT22;55052;52.056;5.296;2023-05-10T07:13:34;14.40;96.40
68235;DHT22;55052;52.056;5.296;2023-05-10T07:16:02;14.40;96.50
68235;DHT22;55052;52.056;5.296;2023-05-10T07:18:29;14.40;96.40
68235;DHT22;55052;52.056;5.296;2023-05-10T07:20:57;14.40;96.30
68235;DHT22;55052;52.056;5.296;2023-05-10T07:23:24;14.50;96.20
68235;DHT22;55052;52.056;5.296;2023-05-10T07:25:51;14.50;96.20
68235;DHT22;55052;52.056;5.296;2023-05-10T07:28:19;14.50;96.20
68235;DHT22;55052;52.056;5.296;2023-05-10T07:30:46;14.50;96.20
68235;DHT22;55052;52.056;5.296;2023-05-10T07:33:13;14.60;96.10
68235;DHT22;55052;52.056;5.296;2023-05-10T07:35:40;14.60;96.10
68235;DHT22;55052;52.056;5.296;2023-05-10T07:38:07;14.70;96.00
68235;DHT22;55052;52.056;5.296;2023-05-10T07:40:34;14.70;95.90
68235;DHT22;55052;52.056;5.296;2023-05-10T07:43:01;14.70;95.80
68235;DHT22;55052;52.056;5.296;2023-05-10T07:45:28;14.70;95.80
68235;DHT22;55052;52.056;5.296;2023-05-10T07:47:55;14.80;95.60
68235;DHT22;55052;52.056;5.296;2023-05-10T07:50:22;14.70;95.40
68235;DHT22;55052;52.056;5.296;2023-05-10T07:52:49;14.80;95.40
68235;DHT22;55052;52.056;5.296;2023-05-10T07:55:18;14.80;95.30
68235;DHT22;55052;52.056;5.296;2023-05-10T07:57:45;14.80;95.20
68235;DHT22;55052;52.056;5.296;2023-05-10T08:00:17;14.80;95.10
68235;DHT22;55052;52.056;5.296;2023-05-10T08:02:44;14.80;95.10
68235;DHT22;55052;52.056;5.296;2023-05-10T08:05:11;14.80;94.90
68235;DHT22;55052;52.056;5.296;2023-05-10T08:07:38;14.80;94.90
68235;DHT22;55052;52.056;5.296;2023-05-10T08:10:06;14.80;94.80
68235;DHT22;55052;52.056;5.296;2023-05-10T08:12:33;14.80;94.80
68235;DHT22;55052;52.056;5.296;2023-05-10T08:15:00;14.80;94.70
68235;DHT22;55052;52.056;5.296;2023-05-10T08:17:26;14.80;94.70
68235;DHT22;55052;52.056;5.296;2023-05-10T08:19:53;14.80;94.70
68235;DHT22;55052;52.056;5.296;2023-05-10T08:22:20;14.80;94.70
68235;DHT22;55052;52.056;5.296;2023-05-10T08:24:47;14.80;94.60
68235;DHT22;55052;52.056;5.296;2023-05-10T08:27:14;14.80;94.60
68235;DHT22;55052;52.056;5.296;2023-05-10T08:29:41;14.90;94.70
68235;DHT22;55052;52.056;5.296;2023-05-10T08:32:15;14.90;94.60
68235;DHT22;55052;52.056;5.296;2023-05-10T08:34:42;14.90;94.60
68235;DHT22;55052;52.056;5.296;2023-05-10T08:37:09;15.00;94.60
68235;DHT22;55052;52.056;5.296;2023-05-10T08:39:39;15.00;94.50
68235;DHT22;55052;52.056;5.296;2023-05-10T08:42:06;15.00;94.50
68235;DHT22;55052;52.056;5.296;2023-05-10T08:44:35;15.00;94.50
68235;DHT22;55052;52.056;5.296;2023-05-10T08:47:05;15.00;94.40
68235;DHT22;55052;52.056;5.296;2023-05-10T08:49:33;15.00;94.40
68235;DHT22;55052;52.056;5.296;2023-05-10T08:52:03;15.00;94.30
68235;DHT22;55052;52.056;5.296;2023-05-10T08:54:32;15.00;94.30
68235;DHT22;55052;52.056;5.296;2023-05-10T08:56:59;15.10;94.30
68235;DHT22;55052;52.056;5.296;2023-05-10T08:59:27;15.10;94.30
68235;DHT22;55052;52.056;5.296;2023-05-10T09:01:55;15.10;94.30
68235;DHT22;55052;52.056;5.296;2023-05-10T09:04:24;15.20;94.40
68235;DHT22;55052;52.056;5.296;2023-05-10T09:06:51;15.20;94.30
68235;DHT22;55052;52.056;5.296;2023-05-10T09:09:19;15.20;94.30
68235;DHT22;55052;52.056;5.296;2023-05-10T09:11:47;15.30;94.30
68235;DHT22;55052;52.056;5.296;2023-05-10T09:14:15;15.30;94.30
68235;DHT22;55052;52.056;5.296;2023-05-10T09:16:42;15.30;94.20
68235;DHT22;55052;52.056;5.296;2023-05-10T09:19:09;15.40;94.10
68235;DHT22;55052;52.056;5.296;2023-05-10T09:21:37;15.40;94.00
68235;DHT22;55052;52.056;5.296;2023-05-10T09:24:06;15.40;93.80
68235;DHT22;55052;52.056;5.296;2023-05-10T09:26:34;15.50;93.70
68235;DHT22;55052;52.056;5.296;2023-05-10T09:29:03;15.50;93.60
68235;DHT22;55052;52.056;5.296;2023-05-10T09:34:10;15.50;93.20
68235;DHT22;55052;52.056;5.296;2023-05-10T09:36:37;15.50;93.00
68235;DHT22;55052;52.056;5.296;2023-05-10T09:39:15;15.50;93.20
68235;DHT22;55052;52.056;5.296;2023-05-10T09:41:42;15.50;93.00
68235;DHT22;55052;52.056;5.296;2023-05-10T09:44:09;15.50;92.80
68235;DHT22;55052;52.056;5.296;2023-05-10T09:46:36;15.50;92.80
68235;DHT22;55052;52.056;5.296;2023-05-10T09:49:05;15.50;92.80
68235;DHT22;55052;52.056;5.296;2023-05-10T09:51:32;15.50;92.80
68235;DHT22;55052;52.056;5.296;2023-05-10T09:54:12;15.50;92.70
68235;DHT22;55052;52.056;5.296;2023-05-10T09:56:41;15.50;92.70
68235;DHT22;55052;52.056;5.296;2023-05-10T09:59:12;15.60;92.70
68235;DHT22;55052;52.056;5.296;2023-05-10T10:01:39;15.60;92.80
68235;DHT22;55052;52.056;5.296;2023-05-10T10:04:09;15.60;92.60
68235;DHT22;55052;52.056;5.296;2023-05-10T10:06:37;15.70;92.60
68235;DHT22;55052;52.056;5.296;2023-05-10T10:09:05;15.70;92.50
68235;DHT22;55052;52.056;5.296;2023-05-10T10:11:35;15.70;92.30
68235;DHT22;55052;52.056;5.296;2023-05-10T10:14:03;15.80;92.40
68235;DHT22;55052;52.056;5.296;2023-05-10T10:16:30;15.80;92.40
68235;DHT22;55052;52.056;5.296;2023-05-10T10:18:58;15.90;92.50
68235;DHT22;55052;52.056;5.296;2023-05-10T10:21:25;15.90;92.50
68235;DHT22;55052;52.056;5.296;2023-05-10T10:23:52;15.90;92.30
68235;DHT22;55052;52.056;5.296;2023-05-10T10:26:20;16.00;92.20
68235;DHT22;55052;52.056;5.296;2023-05-10T10:28:55;16.00;92.20
68235;DHT22;55052;52.056;5.296;2023-05-10T10:31:34;16.00;92.20
68235;DHT22;55052;52.056;5.296;2023-05-10T10:34:08;16.10;92.20
68235;DHT22;55052;52.056;5.296;2023-05-10T10:36:47;16.10;92.20
68235;DHT22;55052;52.056;5.296;2023-05-10T10:39:15;16.10;91.90
68235;DHT22;55052;52.056;5.296;2023-05-10T10:41:53;16.10;91.90
68235;DHT22;55052;52.056;5.296;2023-05-10T10:44:26;16.10;91.70
68235;DHT22;55052;52.056;5.296;2023-05-10T10:52:15;16.10;91.60
68235;DHT22;55052;52.056;5.296;2023-05-10T10:54:50;16.10;91.40
68235;DHT22;55052;52.056;5.296;2023-05-10T10:57:19;16.10;91.40
68235;DHT22;55052;52.056;5.296;2023-05-10T10:59:46;16.20;91.30
68235;DHT22;55052;52.056;5.296;2023-05-10T11:02:32;16.20;91.20
68235;DHT22;55052;52.056;5.296;2023-05-10T11:04:59;16.20;91.00
68235;DHT22;55052;52.056;5.296;2023-05-10T11:07:27;16.30;91.20
68235;DHT22;55052;52.056;5.296;2023-05-10T11:09:54;16.30;91.10
68235;DHT22;55052;52.056;5.296;2023-05-10T11:12:20;16.30;91.10
68235;DHT22;55052;52.056;5.296;2023-05-10T11:14:50;16.50;91.50
68235;DHT22;55052;52.056;5.296;2023-05-10T11:17:23;16.50;91.10
68235;DHT22;55052;52.056;5.296;2023-05-10T11:20:09;16.60;91.10
68235;DHT22;55052;52.056;5.296;2023-05-10T11:22:50;16.70;91.00
68235;DHT22;55052;52.056;5.296;2023-05-10T11:25:22;16.80;90.90
68235;DHT22;55052;52.056;5.296;2023-05-10T11:27:52;16.90;90.90
68235;DHT22;55052;52.056;5.296;2023-05-10T11:30:19;16.90;90.80
68235;DHT22;55052;52.056;5.296;2023-05-10T11:32:46;17.00;90.80
68235;DHT22;55052;52.056;5.296;2023-05-10T11:35:13;17.10;90.70
68235;DHT22;55052;52.056;5.296;2023-05-10T11:37:42;17.10;90.40
68235;DHT22;55052;52.056;5.296;2023-05-10T11:40:10;17.20;90.60
68235;DHT22;55052;52.056;5.296;2023-05-10T11:42:37;17.20;90.00
68235;DHT22;55052;52.056;5.296;2023-05-10T11:45:05;17.20;89.50
68235;DHT22;55052;52.056;5.296;2023-05-10T11:47:32;17.20;89.40
68235;DHT22;55052;52.056;5.296;2023-05-10T11:49:59;17.30;89.20
68235;DHT22;55052;52.056;5.296;2023-05-10T11:52:26;17.20;88.70
68235;DHT22;55052;52.056;5.296;2023-05-10T11:54:54;17.30;88.80
68235;DHT22;55052;52.056;5.296;2023-05-10T11:57:26;17.30;88.80
68235;DHT22;55052;52.056;5.296;2023-05-10T11:59:53;17.30;88.60
68235;DHT22;55052;52.056;5.296;2023-05-10T12:02:23;17.30;88.30
68235;DHT22;55052;52.056;5.296;2023-05-10T12:04:50;17.30;88.10
68235;DHT22;55052;52.056;5.296;2023-05-10T12:07:18;17.30;87.70
68235;DHT22;55052;52.056;5.296;2023-05-10T12:10:01;17.30;87.20
68235;DHT22;55052;52.056;5.296;2023-05-10T12:12:38;17.30;86.80
68235;DHT22;55052;52.056;5.296;2023-05-10T12:15:31;17.40;87.00
68235;DHT22;55052;52.056;5.296;2023-05-10T12:17:57;17.40;87.00
68235;DHT22;55052;52.056;5.296;2023-05-10T12:20:26;17.50;86.60
68235;DHT22;55052;52.056;5.296;2023-05-10T12:22:55;17.50;86.10
68235;DHT22;55052;52.056;5.296;2023-05-10T12:25:30;17.50;86.00
68235;DHT22;55052;52.056;5.296;2023-05-10T12:27:58;17.40;85.50
68235;DHT22;55052;52.056;5.296;2023-05-10T12:30:29;17.40;85.50
68235;DHT22;55052;52.056;5.296;2023-05-10T12:33:22;17.40;85.30
68235;DHT22;55052;52.056;5.296;2023-05-10T12:35:51;17.30;84.90
68235;DHT22;55052;52.056;5.296;2023-05-10T12:38:31;17.20;85.60
68235;DHT22;55052;52.056;5.296;2023-05-10T12:41:00;17.10;86.10
68235;DHT22;55052;52.056;5.296;2023-05-10T12:43:27;17.00;86.80
68235;DHT22;55052;52.056;5.296;2023-05-10T12:45:54;17.00;87.40
68235;DHT22;55052;52.056;5.296;2023-05-10T12:48:21;16.90;88.10
68235;DHT22;55052;52.056;5.296;2023-05-10T12:50:48;16.90;88.90
68235;DHT22;55052;52.056;5.296;2023-05-10T12:53:15;16.80;89.40
68235;DHT22;55052;52.056;5.296;2023-05-10T12:55:43;16.80;90.00
68235;DHT22;55052;52.056;5.296;2023-05-10T12:58:10;16.80;90.30
68235;DHT22;55052;52.056;5.296;2023-05-10T13:00:46;16.70;90.50
68235;DHT22;55052;52.056;5.296;2023-05-10T13:03:13;16.70;90.70
68235;DHT22;55052;52.056;5.296;2023-05-10T13:05:41;16.60;90.70
68235;DHT22;55052;52.056;5.296;2023-05-10T13:08:08;16.50;90.50
68235;DHT22;55052;52.056;5.296;2023-05-10T13:10:34;16.40;90.50
68235;DHT22;55052;52.056;5.296;2023-05-10T13:13:01;16.30;90.40
68235;DHT22;55052;52.056;5.296;2023-05-10T13:15:29;16.20;90.50
68235;DHT22;55052;52.056;5.296;2023-05-10T13:17:56;16.00;90.60
68235;DHT22;55052;52.056;5.296;2023-05-10T13:20:22;15.90;90.70
68235;DHT22;55052;52.056;5.296;2023-05-10T13:22:49;15.80;90.90
68235;DHT22;55052;52.056;5.296;2023-05-10T13:25:17;15.70;91.00
68235;DHT22;55052;52.056;5.296;2023-05-10T13:27:44;15.70;91.20
68235;DHT22;55052;52.056;5.296;2023-05-10T13:30:11;15.60;91.30
68235;DHT22;55052;52.056;5.296;2023-05-10T13:32:38;15.50;91.40
68235;DHT22;55052;52.056;5.296;2023-05-10T13:35:05;15.50;91.60
68235;DHT22;55052;52.056;5.296;2023-05-10T13:37:32;15.40;91.80
68235;DHT22;55052;52.056;5.296;2023-05-10T13:40:02;15.40;92.00
68235;DHT22;55052;52.056;5.296;2023-05-10T13:42:29;15.40;92.10
68235;DHT22;55052;52.056;5.296;2023-05-10T13:44:55;15.40;92.20
68235;DHT22;55052;52.056;5.296;2023-05-10T13:47:22;15.40;92.30
68235;DHT22;55052;52.056;5.296;2023-05-10T13:49:49;15.40;92.40
68235;DHT22;55052;52.056;5.296;2023-05-10T13:52:16;15.40;92.60
68235;DHT22;55052;52.056;5.296;2023-05-10T13:54:42;15.40;92.70
68235;DHT22;55052;52.056;5.296;2023-05-10T13:57:09;15.40;92.80
68235;DHT22;55052;52.056;5.296;2023-05-10T13:59:38;15.40;92.90
68235;DHT22;55052;52.056;5.296;2023-05-10T14:02:05;15.50;93.10
68235;DHT22;55052;52.056;5.296;2023-05-10T14:04:33;15.50;93.20
68235;DHT22;55052;52.056;5.296;2023-05-10T14:07:01;15.50;93.30
68235;DHT22;55052;52.056;5.296;2023-05-10T14:09:28;15.60;93.30
68235;DHT22;55052;52.056;5.296;2023-05-10T14:11:55;15.60;93.40
68235;DHT22;55052;52.056;5.296;2023-05-10T14:14:22;15.60;93.50
68235;DHT22;55052;52.056;5.296;2023-05-10T14:16:49;15.60;93.60
68235;DHT22;55052;52.056;5.296;2023-05-10T14:19:15;15.70;93.70
68235;DHT22;55052;52.056;5.296;2023-05-10T14:21:42;15.70;93.70
68235;DHT22;55052;52.056;5.296;2023-05-10T14:24:09;15.70;93.70
68235;DHT22;55052;52.056;5.296;2023-05-10T14:26:36;15.70;93.60
68235;DHT22;55052;52.056;5.296;2023-05-10T14:29:03;15.80;93.70
68235;DHT22;55052;52.056;5.296;2023-05-10T14:31:30;15.80;93.70
68235;DHT22;55052;52.056;5.296;2023-05-10T14:33:57;15.80;93.70
68235;DHT22;55052;52.056;5.296;2023-05-10T14:36:24;15.80;93.70
68235;DHT22;55052;52.056;5.296;2023-05-10T14:38:51;15.80;93.80
68235;DHT22;55052;52.056;5.296;2023-05-10T14:41:18;15.80;93.80
68235;DHT22;55052;52.056;5.296;2023-05-10T14:43:44;15.90;93.90
68235;DHT22;55052;52.056;5.296;2023-05-10T14:46:11;15.90;93.90
68235;DHT22;55052;52.056;5.296;2023-05-10T14:48:38;15.90;93.90
68235;DHT22;55052;52.056;5.296;2023-05-10T14:51:05;16.00;93.90
68235;DHT22;55052;52.056;5.296;2023-05-10T14:53:33;16.00;93.90
68235;DHT22;55052;52.056;5.296;2023-05-10T14:55:59;16.00;94.00
68235;DHT22;55052;52.056;5.296;2023-05-10T14:58:27;16.10;94.00
68235;DHT22;55052;52.056;5.296;2023-05-10T15:00:54;16.10;94.00
68235;DHT22;55052;52.056;5.296;2023-05-10T15:03:21;16.10;94.00
68235;DHT22;55052;52.056;5.296;2023-05-10T15:05:49;16.20;94.40
68235;DHT22;55052;52.056;5.296;2023-05-10T15:08:16;16.20;94.10
68235;DHT22;55052;52.056;5.296;2023-05-10T15:10:43;16.20;94.10
68235;DHT22;55052;52.056;5.296;2023-05-10T15:13:09;16.20;94.00
68235;DHT22;55052;52.056;5.296;2023-05-10T15:15:36;16.20;94.00
68235;DHT22;55052;52.056;5.296;2023-05-10T15:18:03;16.30;94.10
68235;DHT22;55052;52.056;5.296;2023-05-10T15:20:31;16.30;94.10
68235;DHT22;55052;52.056;5.296;2023-05-10T15:22:58;16.30;94.10
68235;DHT22;55052;52.056;5.296;2023-05-10T15:25:25;16.30;94.10
68235;DHT22;55052;52.056;5.296;2023-05-10T15:27:52;16.30;94.10
68235;DHT22;55052;52.056;5.296;2023-05-10T15:30:19;16.30;94.10
68235;DHT22;55052;52.056;5.296;2023-05-10T15:32:46;16.40;94.10
68235;DHT22;55052;52.056;5.296;2023-05-10T15:35:13;16.40;94.10
68235;DHT22;55052;52.056;5.296;2023-05-10T15:37:40;16.40;94.10
68235;DHT22;55052;52.056;5.296;2023-05-10T15:40:07;16.40;94.00
68235;DHT22;55052;52.056;5.296;2023-05-10T15:42:34;16.40;94.10
68235;DHT22;55052;52.056;5.296;2023-05-10T15:45:02;16.40;94.00
68235;DHT22;55052;52.056;5.296;2023-05-10T15:47:29;16.40;94.00
68235;DHT22;55052;52.056;5.296;2023-05-10T15:49:56;16.50;93.90
68235;DHT22;55052;52.056;5.296;2023-05-10T15:52:23;16.50;93.70
68235;DHT22;55052;52.056;5.296;2023-05-10T15:54:50;16.50;93.80
68235;DHT22;55052;52.056;5.296;2023-05-10T15:57:17;16.50;93.70
68235;DHT22;55052;52.056;5.296;2023-05-10T15:59:44;16.50;93.80
68235;DHT22;55052;52.056;5.296;2023-05-10T16:02:11;16.50;93.90